createdAt,value
2022-11-15T00:00:25.588Z,22.9
2022-11-15T00:01:27.305Z,22.9
2022-11-15T00:02:29.207Z,22.9
2022-11-15T00:03:31.790Z,22.9
2022-11-15T00:04:35.071Z,22.9
2022-11-15T00:05:36.714Z,22.9
2022-11-15T00:06:38.453Z,22.9
2022-11-15T00:07:54.952Z,22.9
2022-11-15T00:08:58.183Z,22.9
2022-11-15T00:09:59.921Z,22.9
2022-11-15T00:11:01.691Z,22.9
2022-11-15T00:12:03.384Z,22.9
2022-11-15T00:13:05.266Z,22.9
2022-11-15T00:14:06.994Z,22.9
2022-11-15T00:15:08.628Z,22.9
2022-11-15T00:16:10.278Z,22.9
2022-11-15T00:17:11.946Z,22.9
2022-11-15T00:18:13.568Z,22.9
2022-11-15T00:19:15.448Z,22.9
2022-11-15T00:20:17.165Z,22.9
2022-11-15T00:21:18.860Z,22.9
2022-11-15T00:22:20.505Z,22.9
2022-11-15T00:23:22.095Z,22.9
2022-11-15T00:24:23.915Z,22.9
2022-11-15T00:25:25.723Z,22.9
2022-11-15T00:26:27.391Z,22.9
2022-11-15T00:27:28.958Z,22.9
2022-11-15T00:28:30.693Z,22.9
2022-11-15T00:29:32.377Z,22.9
2022-11-15T00:30:34.055Z,22.9
2022-11-15T00:31:35.576Z,22.9
2022-11-15T00:32:37.263Z,22.9
2022-11-15T00:33:41.765Z,22.9
2022-11-15T00:34:43.351Z,22.9
2022-11-15T00:35:45.151Z,22.9
2022-11-15T00:36:46.854Z,22.9
2022-11-15T00:37:48.738Z,22.9
2022-11-15T00:38:50.376Z,22.9
2022-11-15T00:39:52.086Z,22.9
2022-11-15T00:40:53.989Z,22.9
2022-11-15T00:41:55.655Z,22.9
2022-11-15T00:42:57.423Z,22.9
2022-11-15T00:43:59.230Z,22.9
2022-11-15T00:45:00.907Z,22.9
2022-11-15T00:46:02.563Z,22.9
2022-11-15T00:47:04.289Z,22.9
2022-11-15T00:48:06.157Z,22.9
2022-11-15T00:49:07.806Z,22.9
2022-11-15T00:50:12.863Z,22.9
2022-11-15T00:51:17.304Z,22.9
2022-11-15T00:52:18.909Z,22.9
2022-11-15T00:53:20.614Z,22.9
2022-11-15T00:54:22.320Z,22.9
2022-11-15T00:55:26.639Z,22.9
2022-11-15T00:56:28.313Z,22.9
2022-11-15T00:57:30.065Z,22.9
2022-11-15T00:58:31.678Z,22.9
2022-11-15T00:59:33.440Z,22.9
2022-11-15T01:00:35.224Z,22.9
2022-11-15T01:01:37.042Z,22.9
2022-11-15T01:02:38.634Z,22.9
2022-11-15T01:03:40.188Z,22.9
2022-11-15T01:04:41.828Z,22.9
2022-11-15T01:05:43.684Z,22.9
2022-11-15T01:06:45.414Z,22.9
2022-11-15T01:07:47.412Z,22.9
2022-11-15T01:08:48.980Z,22.9
2022-11-15T01:09:50.564Z,22.9
2022-11-15T01:10:52.261Z,22.9
2022-11-15T01:11:53.977Z,22.8
2022-11-15T01:12:55.819Z,22.9
2022-11-15T01:13:57.507Z,22.9
2022-11-15T01:14:59.345Z,22.8
2022-11-15T01:16:01.051Z,22.8
2022-11-15T01:17:02.744Z,22.9
2022-11-15T01:18:04.478Z,22.9
2022-11-15T01:19:06.177Z,22.9
2022-11-15T01:20:08.505Z,22.9
2022-11-15T01:21:10.347Z,22.8
2022-11-15T01:22:12.091Z,22.9
2022-11-15T01:23:13.695Z,22.9
2022-11-15T01:24:15.305Z,22.8
2022-11-15T01:25:17.009Z,22.8
2022-11-15T01:26:18.755Z,22.8
2022-11-15T01:27:20.303Z,22.8
2022-11-15T01:28:21.928Z,22.8
2022-11-15T01:29:23.610Z,22.8
2022-11-15T01:30:25.357Z,22.8
2022-11-15T01:31:29.834Z,22.9
2022-11-15T01:32:31.529Z,22.9
2022-11-15T01:33:33.479Z,22.9
2022-11-15T01:34:35.860Z,22.8
2022-11-15T01:35:37.471Z,22.8
2022-11-15T01:36:39.191Z,22.8
2022-11-15T01:37:40.913Z,22.8
2022-11-15T01:38:42.706Z,22.8
2022-11-15T01:39:44.301Z,22.8
2022-11-15T01:40:46.005Z,22.8
2022-11-15T01:41:47.626Z,22.8
2022-11-15T01:42:49.247Z,22.8
2022-11-15T01:43:51.043Z,22.8
2022-11-15T01:44:52.810Z,22.8
2022-11-15T01:45:54.641Z,22.8
2022-11-15T01:46:56.476Z,22.8
2022-11-15T01:47:58.181Z,22.8
2022-11-15T01:48:59.921Z,22.8
2022-11-15T01:50:01.519Z,22.8
2022-11-15T01:51:03.334Z,22.8
2022-11-15T01:52:05.150Z,22.8
2022-11-15T01:53:06.726Z,22.8
2022-11-15T01:54:08.265Z,22.8
2022-11-15T01:55:10.078Z,22.8
2022-11-15T01:56:11.742Z,22.8
2022-11-15T01:57:13.393Z,22.8
2022-11-15T01:58:15.071Z,22.8
2022-11-15T01:59:16.714Z,22.8
2022-11-15T02:00:18.431Z,22.8
2022-11-15T02:01:20.247Z,22.8
2022-11-15T02:02:22.121Z,22.8
2022-11-15T02:03:26.683Z,22.8
2022-11-15T02:04:28.314Z,22.7
2022-11-15T02:05:30.001Z,22.8
2022-11-15T02:06:31.658Z,22.8
2022-11-15T02:07:33.396Z,22.8
2022-11-15T02:08:35.581Z,22.8
2022-11-15T02:09:37.152Z,22.8
2022-11-15T02:10:38.753Z,22.8
2022-11-15T02:11:40.380Z,22.8
2022-11-15T02:12:42.171Z,22.7
2022-11-15T02:13:43.888Z,22.7
2022-11-15T02:14:45.567Z,22.7
2022-11-15T02:15:47.245Z,22.7
2022-11-15T02:16:49.055Z,22.7
2022-11-15T02:17:50.832Z,22.7
2022-11-15T02:18:52.607Z,22.7
2022-11-15T02:19:54.279Z,22.7
2022-11-15T02:20:55.900Z,22.7
2022-11-15T02:21:57.545Z,22.7
2022-11-15T02:22:59.330Z,22.7
2022-11-15T02:24:01.021Z,22.7
2022-11-15T02:25:02.696Z,22.7
2022-11-15T02:26:04.356Z,22.7
2022-11-15T02:27:06.078Z,22.7
2022-11-15T02:28:07.823Z,22.7
2022-11-15T02:29:09.519Z,22.7
2022-11-15T02:30:11.318Z,22.7
2022-11-15T02:31:12.940Z,22.7
2022-11-15T02:32:14.787Z,22.7
2022-11-15T02:33:16.493Z,22.7
2022-11-15T02:34:18.060Z,22.7
2022-11-15T02:35:19.706Z,22.7
2022-11-15T02:36:21.281Z,22.7
2022-11-15T02:37:22.989Z,22.7
2022-11-15T02:38:24.664Z,22.7
2022-11-15T02:39:26.389Z,22.7
2022-11-15T02:40:28.125Z,22.7
2022-11-15T02:41:29.681Z,22.7
2022-11-15T02:42:31.433Z,22.7
2022-11-15T02:43:33.521Z,22.7
2022-11-15T02:44:36.231Z,22.7
2022-11-15T02:45:37.863Z,22.7
2022-11-15T02:46:42.574Z,22.7
2022-11-15T02:47:44.341Z,22.7
2022-11-15T02:48:45.978Z,22.7
2022-11-15T02:49:47.661Z,22.7
2022-11-15T02:50:49.362Z,22.7
2022-11-15T02:51:51.095Z,22.7
2022-11-15T02:52:52.736Z,22.7
2022-11-15T02:53:54.411Z,22.7
2022-11-15T02:54:56.017Z,22.7
2022-11-15T02:55:57.658Z,22.7
2022-11-15T02:56:59.333Z,22.6
2022-11-15T02:58:00.897Z,22.6
2022-11-15T02:59:02.632Z,22.6
2022-11-15T03:00:04.233Z,22.6
2022-11-15T03:01:06.159Z,22.6
2022-11-15T03:02:08.470Z,22.7
2022-11-15T03:03:10.186Z,22.7
2022-11-15T03:04:12.021Z,22.6
2022-11-15T03:05:13.819Z,22.6
2022-11-15T03:06:15.457Z,22.6
2022-11-15T03:07:17.140Z,22.6
2022-11-15T03:08:19.159Z,22.6
2022-11-15T03:09:20.950Z,22.6
2022-11-15T03:10:22.514Z,22.6
2022-11-15T03:11:24.274Z,22.6
2022-11-15T03:12:25.928Z,22.6
2022-11-15T03:13:27.613Z,22.6
2022-11-15T03:14:29.585Z,22.6
2022-11-15T03:15:31.204Z,22.6
2022-11-15T03:16:32.829Z,22.6
2022-11-15T03:17:34.477Z,22.6
2022-11-15T03:18:36.321Z,22.6
2022-11-15T03:19:41.203Z,22.6
2022-11-15T03:20:43.013Z,22.6
2022-11-15T03:21:44.565Z,22.6
2022-11-15T03:22:49.170Z,22.6
2022-11-15T03:23:50.719Z,22.6
2022-11-15T03:24:52.397Z,22.6
2022-11-15T03:25:54.053Z,22.5
2022-11-15T03:26:55.937Z,22.6
2022-11-15T03:27:57.631Z,22.5
2022-11-15T03:28:59.412Z,22.5
2022-11-15T03:30:01.181Z,22.5
2022-11-15T03:31:03.085Z,22.5
2022-11-15T03:32:04.805Z,22.6
2022-11-15T03:33:06.481Z,22.6
2022-11-15T03:34:08.372Z,22.6
2022-11-15T03:35:10.204Z,22.5
2022-11-15T03:36:12.030Z,22.5
2022-11-15T03:37:13.822Z,22.6
2022-11-15T03:38:15.802Z,22.5
2022-11-15T03:39:20.694Z,22.6
2022-11-15T03:40:22.659Z,22.6
2022-11-15T03:41:27.193Z,22.6
2022-11-15T03:42:29.010Z,22.5
2022-11-15T03:43:30.973Z,22.5
2022-11-15T03:44:34.248Z,22.5
2022-11-15T03:45:35.977Z,22.5
2022-11-15T03:46:37.662Z,22.5
2022-11-15T03:47:39.246Z,22.6
2022-11-15T03:48:40.952Z,22.5
2022-11-15T03:49:42.699Z,22.5
2022-11-15T03:50:44.369Z,22.5
2022-11-15T03:51:45.958Z,22.5
2022-11-15T03:52:47.699Z,22.5
2022-11-15T03:53:49.362Z,22.5
2022-11-15T03:54:50.924Z,22.5
2022-11-15T03:55:52.512Z,22.5
2022-11-15T03:56:54.274Z,22.5
2022-11-15T03:57:56.042Z,22.5
2022-11-15T03:58:57.730Z,22.5
2022-11-15T03:59:59.246Z,22.5
2022-11-15T04:01:01.027Z,22.5
2022-11-15T04:02:03.245Z,22.5
2022-11-15T04:03:04.969Z,22.5
2022-11-15T04:04:06.655Z,22.5
2022-11-15T04:05:08.385Z,22.5
2022-11-15T04:06:10.073Z,22.5
2022-11-15T04:07:11.853Z,22.5
2022-11-15T04:08:14.989Z,22.5
2022-11-15T04:09:16.678Z,22.5
2022-11-15T04:10:18.367Z,22.5
2022-11-15T04:11:19.912Z,22.5
2022-11-15T04:12:21.532Z,22.5
2022-11-15T04:13:23.193Z,22.4
2022-11-15T04:14:24.825Z,22.4
2022-11-15T04:15:26.379Z,22.4
2022-11-15T04:16:28.098Z,22.4
2022-11-15T04:17:29.844Z,22.4
2022-11-15T04:18:31.646Z,22.4
2022-11-15T04:19:33.301Z,22.4
2022-11-15T04:20:35.007Z,22.4
2022-11-15T04:21:36.778Z,22.4
2022-11-15T04:22:38.436Z,22.4
2022-11-15T04:23:40.016Z,22.4
2022-11-15T04:24:41.665Z,22.5
2022-11-15T04:25:43.334Z,22.5
2022-11-15T04:26:44.955Z,22.5
2022-11-15T04:27:46.820Z,22.5
2022-11-15T04:28:48.558Z,22.5
2022-11-15T04:29:50.225Z,22.5
2022-11-15T04:30:51.881Z,22.4
2022-11-15T04:31:53.622Z,22.5
2022-11-15T04:32:55.282Z,22.5
2022-11-15T04:33:56.986Z,22.4
2022-11-15T04:34:58.611Z,22.4
2022-11-15T04:36:00.506Z,22.4
2022-11-15T04:37:02.267Z,22.4
2022-11-15T04:38:03.898Z,22.4
2022-11-15T04:39:05.645Z,22.4
2022-11-15T04:40:07.319Z,22.3
2022-11-15T04:41:09.034Z,22.3
2022-11-15T04:42:10.660Z,22.2
2022-11-15T04:43:12.341Z,22.2
2022-11-15T04:44:16.912Z,22.2
2022-11-15T04:45:18.606Z,22.2
2022-11-15T04:46:20.334Z,22.2
2022-11-15T04:47:22.117Z,22.1
2022-11-15T04:48:23.851Z,22.1
2022-11-15T04:49:25.430Z,22.1
2022-11-15T04:50:27.070Z,22.1
2022-11-15T04:51:28.871Z,22.1
2022-11-15T04:52:30.685Z,22.1
2022-11-15T04:53:32.445Z,22.1
2022-11-15T04:54:35.806Z,22.1
2022-11-15T04:55:37.676Z,22.1
2022-11-15T04:56:39.361Z,22.1
2022-11-15T04:57:40.939Z,22.1
2022-11-15T04:58:42.585Z,22
2022-11-15T04:59:44.199Z,22
2022-11-15T05:00:45.752Z,22
2022-11-15T05:01:47.768Z,22
2022-11-15T05:02:49.648Z,22
2022-11-15T05:03:51.233Z,22
2022-11-15T05:04:53.080Z,22
2022-11-15T05:05:54.932Z,22
2022-11-15T05:06:56.856Z,22
2022-11-15T05:07:58.910Z,21.9
2022-11-15T05:09:00.519Z,21.9
2022-11-15T05:10:02.241Z,21.9
2022-11-15T05:11:04.051Z,21.9
2022-11-15T05:12:05.615Z,21.8
2022-11-15T05:13:07.472Z,21.8
2022-11-15T05:14:09.306Z,21.9
2022-11-15T05:15:11.167Z,21.9
2022-11-15T05:16:12.992Z,21.8
2022-11-15T05:17:14.698Z,21.8
2022-11-15T05:18:20.803Z,21.9
2022-11-15T05:19:25.472Z,21.9
2022-11-15T05:20:27.075Z,21.9
2022-11-15T05:21:28.866Z,21.9
2022-11-15T05:22:30.657Z,21.9
2022-11-15T05:23:32.421Z,21.9
2022-11-15T05:24:35.647Z,21.9
2022-11-15T05:25:37.363Z,21.9
2022-11-15T05:26:38.954Z,21.9
2022-11-15T05:27:40.605Z,21.8
2022-11-15T05:28:42.217Z,21.9
2022-11-15T05:29:43.892Z,21.9
2022-11-15T05:30:45.440Z,21.9
2022-11-15T05:31:47.266Z,21.9
2022-11-15T05:32:49.068Z,21.9
2022-11-15T05:33:50.889Z,21.9
2022-11-15T05:34:52.614Z,21.9
2022-11-15T05:35:54.220Z,21.8
2022-11-15T05:36:55.906Z,21.8
2022-11-15T05:37:57.751Z,21.8
2022-11-15T05:38:59.420Z,21.8
2022-11-15T05:40:01.091Z,21.7
2022-11-15T05:41:02.787Z,21.7
2022-11-15T05:42:04.412Z,21.8
2022-11-15T05:43:06.187Z,21.8
2022-11-15T05:44:10.713Z,21.8
2022-11-15T05:45:12.277Z,21.8
2022-11-15T05:46:13.923Z,21.8
2022-11-15T05:47:15.518Z,21.8
2022-11-15T05:48:17.131Z,21.8
2022-11-15T05:49:18.817Z,21.8
2022-11-15T05:50:20.337Z,21.7
2022-11-15T05:51:21.882Z,21.7
2022-11-15T05:52:23.527Z,21.7
2022-11-15T05:53:25.601Z,21.7
2022-11-15T05:54:27.286Z,21.7
2022-11-15T05:55:28.889Z,21.7
2022-11-15T05:56:30.582Z,21.7
2022-11-15T05:57:32.343Z,21.6
2022-11-15T05:58:33.994Z,21.7
2022-11-15T05:59:35.753Z,21.7
2022-11-15T06:00:37.327Z,21.7
2022-11-15T06:01:39.028Z,21.7
2022-11-15T06:02:40.995Z,21.7
2022-11-15T06:03:42.685Z,21.7
2022-11-15T06:04:44.268Z,21.7
2022-11-15T06:05:45.958Z,21.7
2022-11-15T06:06:47.744Z,21.8
2022-11-15T06:07:49.689Z,21.8
2022-11-15T06:08:51.404Z,21.8
2022-11-15T06:09:53.133Z,21.7
2022-11-15T06:10:54.814Z,21.7
2022-11-15T06:11:56.547Z,21.8
2022-11-15T06:12:58.187Z,21.8
2022-11-15T06:14:00.006Z,21.8
2022-11-15T06:15:01.645Z,21.8
2022-11-15T06:16:03.203Z,21.8
2022-11-15T06:17:08.636Z,21.8
2022-11-15T06:18:13.079Z,21.9
2022-11-15T06:19:14.819Z,21.9
2022-11-15T06:20:16.692Z,21.9
2022-11-15T06:21:18.587Z,21.9
2022-11-15T06:22:20.229Z,22
2022-11-15T06:23:22.007Z,22
2022-11-15T06:24:23.823Z,22
2022-11-15T06:25:25.499Z,22
2022-11-15T06:26:27.298Z,22
2022-11-15T06:27:28.961Z,22
2022-11-15T06:28:30.772Z,22
2022-11-15T06:29:32.654Z,22.1
2022-11-15T06:30:34.225Z,22.1
2022-11-15T06:31:35.933Z,22.1
2022-11-15T06:32:37.556Z,22.1
2022-11-15T06:33:39.210Z,22.1
2022-11-15T06:34:40.848Z,22.1
2022-11-15T06:35:42.670Z,22.1
2022-11-15T06:36:44.250Z,22.1
2022-11-15T06:37:45.840Z,22.2
2022-11-15T06:38:47.459Z,22.2
2022-11-15T06:39:49.444Z,22.2
2022-11-15T06:40:51.211Z,22.3
2022-11-15T06:41:52.909Z,22.3
2022-11-15T06:42:54.452Z,22.3
2022-11-15T06:43:56.224Z,22.3
2022-11-15T06:44:57.949Z,22.3
2022-11-15T06:45:59.598Z,22.3
2022-11-15T06:47:01.296Z,22.3
2022-11-15T06:48:02.985Z,22.3
2022-11-15T06:49:09.337Z,22.3
2022-11-15T06:50:11.616Z,22.3
2022-11-15T06:51:13.713Z,22.4
2022-11-15T06:52:15.258Z,22.4
2022-11-15T06:53:16.920Z,22.4
2022-11-15T06:54:18.511Z,22.4
2022-11-15T06:55:20.316Z,22.4
2022-11-15T06:56:22.012Z,22.4
2022-11-15T06:57:23.726Z,22.4
2022-11-15T06:58:25.425Z,22.4
2022-11-15T06:59:27.098Z,22.4
2022-11-15T07:00:28.869Z,22.4
2022-11-15T07:01:31.016Z,22.4
2022-11-15T07:02:33.032Z,22.5
2022-11-15T07:03:35.012Z,22.5
2022-11-15T07:04:36.958Z,22.5
2022-11-15T07:05:38.734Z,22.5
2022-11-15T07:06:40.647Z,22.5
2022-11-15T07:07:42.304Z,22.5
2022-11-15T07:08:43.901Z,22.6
2022-11-15T07:09:45.760Z,22.6
2022-11-15T07:10:47.636Z,22.6
2022-11-15T07:11:49.356Z,22.6
2022-11-15T07:12:51.154Z,22.6
2022-11-15T07:13:52.789Z,22.6
2022-11-15T07:14:54.630Z,22.6
2022-11-15T07:15:56.474Z,22.6
2022-11-15T07:16:58.059Z,22.6
2022-11-15T07:17:59.868Z,22.6
2022-11-15T07:19:01.546Z,22.6
2022-11-15T07:20:03.211Z,22.6
2022-11-15T07:21:04.854Z,22.6
2022-11-15T07:22:06.600Z,22.6
2022-11-15T07:23:08.345Z,22.6
2022-11-15T07:24:10.170Z,22.7
2022-11-15T07:25:11.913Z,22.7
2022-11-15T07:26:14.355Z,22.7
2022-11-15T07:27:16.246Z,22.7
2022-11-15T07:28:18.677Z,22.7
2022-11-15T07:29:20.945Z,22.7
2022-11-15T07:30:22.540Z,22.8
2022-11-15T07:31:24.113Z,22.8
2022-11-15T07:32:25.831Z,22.8
2022-11-15T07:33:27.512Z,22.8
2022-11-15T07:34:29.110Z,22.9
2022-11-15T07:35:31.002Z,22.9
2022-11-15T07:36:32.854Z,22.9
2022-11-15T07:37:34.614Z,22.9
2022-11-15T07:38:41.210Z,22.9
2022-11-15T07:39:44.781Z,22.9
2022-11-15T07:40:46.638Z,22.9
2022-11-15T07:41:48.310Z,22.9
2022-11-15T07:42:50.131Z,22.9
2022-11-15T07:43:51.710Z,22.9
2022-11-15T07:44:53.416Z,22.9
2022-11-15T07:45:59.007Z,22.9
2022-11-15T07:47:01.517Z,22.9
2022-11-15T07:48:03.185Z,22.9
2022-11-15T07:49:05.330Z,22.9
2022-11-15T07:50:07.225Z,22.9
2022-11-15T07:51:13.843Z,22.9
2022-11-15T07:52:16.489Z,22.9
2022-11-15T07:53:18.269Z,22.9
2022-11-15T07:54:19.896Z,22.9
2022-11-15T07:55:21.554Z,22.9
2022-11-15T07:56:23.278Z,22.9
2022-11-15T07:57:25.602Z,22.9
2022-11-15T07:58:27.246Z,23
2022-11-15T07:59:29.022Z,23
2022-11-15T08:00:30.744Z,23.1
2022-11-15T08:01:32.691Z,23.1
2022-11-15T08:02:35.038Z,23.1
2022-11-15T08:03:37.243Z,23.2
2022-11-15T08:04:38.833Z,23.2
2022-11-15T08:05:40.576Z,23.3
2022-11-15T08:06:42.323Z,23.3
2022-11-15T08:07:44.174Z,23.3
2022-11-15T08:08:46.003Z,23.3
2022-11-15T08:09:47.607Z,23.3
2022-11-15T08:10:49.434Z,23.4
2022-11-15T08:11:51.160Z,23.4
2022-11-15T08:12:52.905Z,23.4
2022-11-15T08:13:55.148Z,23.4
2022-11-15T08:14:56.790Z,23.4
2022-11-15T08:15:58.439Z,23.4
2022-11-15T08:17:00.016Z,23.4
2022-11-15T08:18:03.939Z,23.4
2022-11-15T08:19:05.726Z,23.4
2022-11-15T08:20:07.488Z,23.4
2022-11-15T08:21:11.100Z,23.5
2022-11-15T08:22:20.056Z,23.5
2022-11-15T08:23:21.704Z,23.6
2022-11-15T08:24:23.274Z,23.5
2022-11-15T08:25:24.818Z,23.6
2022-11-15T08:26:26.535Z,23.6
2022-11-15T08:27:28.338Z,23.6
2022-11-15T08:28:30.465Z,23.6
2022-11-15T08:29:32.038Z,23.6
2022-11-15T08:30:33.694Z,23.6
2022-11-15T08:31:35.376Z,23.6
2022-11-15T08:32:39.862Z,23.6
2022-11-15T08:33:41.602Z,23.7
2022-11-15T08:34:43.496Z,23.7
2022-11-15T08:35:45.304Z,23.7
2022-11-15T08:36:47.096Z,23.7
2022-11-15T08:37:48.839Z,23.7
2022-11-15T08:38:50.499Z,23.7
2022-11-15T08:39:52.333Z,23.7
2022-11-15T08:40:53.932Z,23.7
2022-11-15T08:41:55.695Z,23.7
2022-11-15T08:42:57.570Z,23.7
2022-11-15T08:43:59.358Z,23.8
2022-11-15T08:45:01.070Z,23.8
2022-11-15T08:46:02.750Z,23.8
2022-11-15T08:47:04.358Z,23.8
2022-11-15T08:48:06.183Z,23.8
2022-11-15T08:49:08.057Z,23.8
2022-11-15T08:50:09.814Z,23.8
2022-11-15T08:51:12.576Z,23.8
2022-11-15T08:52:14.351Z,23.8
2022-11-15T08:53:16.183Z,23.8
2022-11-15T08:54:17.800Z,23.8
2022-11-15T08:55:24.716Z,23.8
2022-11-15T08:56:26.809Z,23.8
2022-11-15T08:57:28.698Z,23.8
2022-11-15T08:58:30.816Z,23.8
2022-11-15T08:59:34.036Z,23.9
2022-11-15T09:00:36.059Z,23.9
2022-11-15T09:01:37.894Z,23.9
2022-11-15T09:02:39.898Z,23.9
2022-11-15T09:03:41.651Z,23.9
2022-11-15T09:04:43.432Z,23.9
2022-11-15T09:05:45.271Z,23.9
2022-11-15T09:06:46.975Z,23.9
2022-11-15T09:07:48.938Z,23.9
2022-11-15T09:08:50.558Z,23.9
2022-11-15T09:09:52.385Z,23.9
2022-11-15T09:10:54.297Z,23.9
2022-11-15T09:12:01.124Z,23.9
2022-11-15T09:13:04.656Z,23.9
2022-11-15T09:14:07.200Z,23.9
2022-11-15T09:15:09.775Z,23.9
2022-11-15T09:16:11.446Z,24
2022-11-15T09:17:13.268Z,24
2022-11-15T09:18:15.228Z,24
2022-11-15T09:19:17.681Z,24
2022-11-15T09:20:20.123Z,24
2022-11-15T09:21:21.829Z,24
2022-11-15T09:22:23.462Z,24
2022-11-15T09:23:25.091Z,24
2022-11-15T09:24:26.830Z,24.1
2022-11-15T09:25:29.066Z,24.1
2022-11-15T09:26:30.955Z,24
2022-11-15T09:27:32.566Z,24
2022-11-15T09:28:34.747Z,24.1
2022-11-15T09:29:40.237Z,24
2022-11-15T09:30:42.077Z,24
2022-11-15T09:31:43.905Z,24
2022-11-15T09:32:45.755Z,24
2022-11-15T09:33:47.323Z,24.1
2022-11-15T09:34:48.949Z,24.1
2022-11-15T09:35:50.583Z,24.1
2022-11-15T09:36:52.261Z,24.1
2022-11-15T09:37:56.404Z,24.2
2022-11-15T09:38:58.215Z,24.2
2022-11-15T09:39:59.873Z,24.3
2022-11-15T09:41:01.634Z,24.3
2022-11-15T09:42:03.343Z,24.3
2022-11-15T09:43:04.947Z,24.4
2022-11-15T09:44:06.515Z,24.4
2022-11-15T09:45:08.142Z,24.4
2022-11-15T09:46:09.884Z,24.3
2022-11-15T09:47:11.548Z,24.3
2022-11-15T09:48:13.243Z,24.3
2022-11-15T09:49:14.799Z,24.3
2022-11-15T09:50:16.391Z,24.3
2022-11-15T09:51:18.029Z,24.3
2022-11-15T09:52:19.820Z,24.4
2022-11-15T09:53:34.454Z,24.4
2022-11-15T09:55:56.377Z,24.5
2022-11-15T09:56:58.073Z,24.5
2022-11-15T09:57:59.928Z,24.5
2022-11-15T09:59:01.594Z,24.5
2022-11-15T10:00:24.152Z,24.5
2022-11-15T10:01:50.639Z,24.5
2022-11-15T10:02:52.715Z,24.5
2022-11-15T10:03:54.436Z,24.5
2022-11-15T10:04:56.247Z,24.5
2022-11-15T10:05:58.010Z,24.5
2022-11-15T10:06:59.771Z,24.5
2022-11-15T10:08:01.838Z,24.6
2022-11-15T10:09:03.585Z,24.6
2022-11-15T10:10:05.203Z,24.6
2022-11-15T10:12:41.494Z,24.6
2022-11-15T10:13:43.238Z,24.6
2022-11-15T10:14:44.885Z,24.6
2022-11-15T10:15:55.952Z,24.6
2022-11-15T10:16:57.845Z,24.6
2022-11-15T10:17:59.785Z,24.6
2022-11-15T10:19:01.449Z,24.6
2022-11-15T10:20:05.869Z,24.6
2022-11-15T10:21:08.182Z,24.6
2022-11-15T10:22:10.063Z,24.6
2022-11-15T10:23:11.665Z,24.6
2022-11-15T10:24:13.370Z,24.6
2022-11-15T10:25:15.081Z,24.6
2022-11-15T10:26:16.793Z,24.6
2022-11-15T10:27:18.558Z,24.6
2022-11-15T10:28:20.322Z,24.6
2022-11-15T10:29:26.676Z,24.6
2022-11-15T10:30:29.235Z,24.6
2022-11-15T10:31:30.870Z,24.6
2022-11-15T10:32:32.759Z,24.7
2022-11-15T10:33:34.503Z,24.7
2022-11-15T10:34:36.353Z,24.7
2022-11-15T10:35:38.065Z,24.7
2022-11-15T10:36:39.720Z,24.7
2022-11-15T10:37:41.412Z,24.7
2022-11-15T10:38:43.231Z,24.7
2022-11-15T10:39:44.960Z,24.7
2022-11-15T10:40:46.610Z,24.7
2022-11-15T10:41:48.197Z,24.7
2022-11-15T10:42:50.003Z,24.7
2022-11-15T10:43:51.639Z,24.7
2022-11-15T10:44:53.223Z,24.7
2022-11-15T10:45:54.823Z,24.7
2022-11-15T10:46:56.641Z,24.8
2022-11-15T10:47:58.532Z,24.8
2022-11-15T10:49:00.407Z,24.8
2022-11-15T10:50:02.044Z,24.8
2022-11-15T10:51:03.723Z,24.8
2022-11-15T10:52:05.525Z,24.8
2022-11-15T10:53:07.164Z,24.9
2022-11-15T10:54:11.859Z,24.9
2022-11-15T10:55:22.659Z,24.9
2022-11-15T10:56:24.393Z,24.9
2022-11-15T10:57:26.200Z,24.9
2022-11-15T10:58:27.890Z,25
2022-11-15T10:59:31.084Z,25
2022-11-15T11:00:40.921Z,25
2022-11-15T11:01:42.755Z,25.1
2022-11-15T11:02:44.598Z,25.1
2022-11-15T11:03:46.320Z,25.2
2022-11-15T11:04:47.922Z,25.3
2022-11-15T11:05:49.763Z,25.3
2022-11-15T11:06:51.570Z,25.3
2022-11-15T11:07:53.441Z,25.3
2022-11-15T11:08:55.088Z,25.3
2022-11-15T11:09:56.748Z,25.4
2022-11-15T11:11:03.337Z,25.3
2022-11-15T11:12:06.124Z,25.3
2022-11-15T11:13:07.928Z,25.3
2022-11-15T11:14:09.803Z,25.3
2022-11-15T11:15:11.605Z,25.4
2022-11-15T11:16:13.277Z,25.4
2022-11-15T11:17:14.976Z,25.4
2022-11-15T11:18:16.699Z,25.4
2022-11-15T11:19:18.618Z,25.4
2022-11-15T11:20:20.420Z,25.4
2022-11-15T11:21:25.705Z,25.4
2022-11-15T11:22:41.864Z,25.4
2022-11-15T11:23:43.688Z,25.4
2022-11-15T11:24:45.480Z,25.4
2022-11-15T11:25:47.152Z,25.4
2022-11-15T11:26:51.687Z,25.4
2022-11-15T11:27:58.919Z,25.4
2022-11-15T11:29:00.550Z,25.4
2022-11-15T11:30:02.239Z,25.3
2022-11-15T11:31:03.935Z,25.3
2022-11-15T11:32:05.692Z,25.3
2022-11-15T11:33:07.294Z,25.4
2022-11-15T11:34:09.131Z,25.4
2022-11-15T11:35:11.078Z,25.4
2022-11-15T11:36:12.750Z,25.4
2022-11-15T11:37:14.333Z,25.4
2022-11-15T11:38:16.465Z,25.4
2022-11-15T11:39:18.623Z,25.4
2022-11-15T11:40:20.409Z,25.4
2022-11-15T11:41:22.136Z,25.4
2022-11-15T11:42:23.796Z,25.4
2022-11-15T11:43:28.171Z,25.4
2022-11-15T11:44:29.728Z,25.4
2022-11-15T11:45:31.474Z,25.4
2022-11-15T11:46:33.105Z,25.4
2022-11-15T11:47:34.687Z,25.4
2022-11-15T11:48:36.361Z,25.4
2022-11-15T11:49:38.017Z,25.4
2022-11-15T11:50:40.057Z,25.4
2022-11-15T11:51:41.817Z,25.4
2022-11-15T11:52:43.745Z,25.5
2022-11-15T11:53:45.465Z,25.5
2022-11-15T11:54:47.234Z,25.5
2022-11-15T11:55:48.896Z,25.5
2022-11-15T11:56:50.489Z,25.5
2022-11-15T11:57:52.224Z,25.5
2022-11-15T11:58:53.984Z,25.5
2022-11-15T11:59:55.703Z,25.5
2022-11-15T12:00:57.477Z,25.5
2022-11-15T12:01:59.186Z,25.5
2022-11-15T12:03:01.757Z,25.5
2022-11-15T12:04:04.677Z,25.5
2022-11-15T12:05:06.226Z,25.5
2022-11-15T12:06:08.068Z,25.5
2022-11-15T12:07:09.877Z,25.5
2022-11-15T12:08:11.954Z,25.5
2022-11-15T12:09:13.664Z,25.5
2022-11-15T12:10:15.376Z,25.5
2022-11-15T12:11:17.014Z,25.5
2022-11-15T12:12:18.796Z,25.4
2022-11-15T12:13:20.405Z,25.4
2022-11-15T12:14:22.180Z,25.4
2022-11-15T12:15:23.923Z,25.4
2022-11-15T12:16:25.501Z,25.4
2022-11-15T12:17:27.342Z,25.4
2022-11-15T12:18:29.462Z,25.4
2022-11-15T12:19:32.703Z,25.4
2022-11-15T12:20:34.482Z,25.4
2022-11-15T12:21:36.230Z,25.4
2022-11-15T12:22:38.004Z,25.4
2022-11-15T12:23:39.730Z,25.5
2022-11-15T12:24:41.419Z,25.5
2022-11-15T12:25:43.528Z,25.5
2022-11-15T12:26:45.391Z,25.4
2022-11-15T12:27:47.193Z,25.5
2022-11-15T12:29:06.234Z,25.4
2022-11-15T12:30:10.958Z,25.5
2022-11-15T12:31:13.062Z,25.5
2022-11-15T12:32:14.738Z,25.5
2022-11-15T12:33:16.448Z,25.4
2022-11-15T12:34:18.299Z,25.4
2022-11-15T12:35:19.986Z,25.4
2022-11-15T12:36:21.545Z,25.5
2022-11-15T12:37:23.474Z,25.4
2022-11-15T12:38:25.208Z,25.4
2022-11-15T12:39:26.931Z,25.4
2022-11-15T12:40:28.826Z,25.5
2022-11-15T12:41:30.532Z,25.5
2022-11-15T12:42:32.307Z,25.6
2022-11-15T12:43:34.089Z,25.6
2022-11-15T12:44:35.876Z,25.6
2022-11-15T12:45:37.553Z,25.6
2022-11-15T12:46:39.214Z,25.6
2022-11-15T12:47:40.856Z,25.6
2022-11-15T12:48:42.490Z,25.6
2022-11-15T12:49:44.310Z,25.6
2022-11-15T12:50:46.195Z,25.5
2022-11-15T12:51:48.009Z,25.5
2022-11-15T12:52:49.858Z,25.5
2022-11-15T12:53:51.753Z,25.6
2022-11-15T12:54:53.523Z,25.5
2022-11-15T12:55:55.296Z,25.5
2022-11-15T12:56:56.852Z,25.5
2022-11-15T12:57:58.534Z,25.5
2022-11-15T12:59:00.087Z,25.5
2022-11-15T13:00:01.937Z,25.5
2022-11-15T13:01:03.822Z,25.5
2022-11-15T13:02:05.792Z,25.5
2022-11-15T13:03:07.462Z,25.5
2022-11-15T13:04:09.161Z,25.5
2022-11-15T13:05:11.019Z,25.5
2022-11-15T13:06:12.803Z,25.6
2022-11-15T13:07:14.400Z,25.6
2022-11-15T13:08:16.307Z,25.6
2022-11-15T13:09:18.045Z,25.6
2022-11-15T13:10:21.599Z,25.6
2022-11-15T13:11:30.020Z,25.6
2022-11-15T13:12:31.772Z,25.6
2022-11-15T13:13:33.511Z,25.6
2022-11-15T13:14:35.258Z,25.6
2022-11-15T13:15:41.255Z,25.6
2022-11-15T13:16:44.844Z,25.6
2022-11-15T13:17:46.551Z,25.6
2022-11-15T13:18:48.270Z,25.6
2022-11-15T13:19:49.919Z,25.6
2022-11-15T13:20:51.684Z,25.6
2022-11-15T13:21:53.337Z,25.6
2022-11-15T13:22:54.942Z,25.6
2022-11-15T13:23:56.826Z,25.6
2022-11-15T13:24:58.698Z,25.6
2022-11-15T13:26:00.333Z,25.6
2022-11-15T13:27:02.110Z,25.6
2022-11-15T13:28:07.873Z,25.6
2022-11-15T13:29:09.867Z,25.6
2022-11-15T13:30:11.658Z,25.6
2022-11-15T13:31:13.307Z,25.6
2022-11-15T13:32:14.935Z,25.6
2022-11-15T13:33:16.515Z,25.6
2022-11-15T13:34:44.528Z,25.6
2022-11-15T13:35:54.806Z,25.6
2022-11-15T13:36:59.527Z,25.6
2022-11-15T13:38:01.174Z,25.6
2022-11-15T13:39:02.934Z,25.6
2022-11-15T13:40:04.703Z,25.6
2022-11-15T13:41:06.584Z,25.6
2022-11-15T13:42:08.278Z,25.5
2022-11-15T13:43:09.989Z,25.5
2022-11-15T13:44:11.610Z,25.5
2022-11-15T13:45:13.211Z,25.5
2022-11-15T13:46:14.897Z,25.5
2022-11-15T13:47:16.524Z,25.5
2022-11-15T13:48:18.132Z,25.5
2022-11-15T13:49:19.749Z,25.5
2022-11-15T13:50:21.298Z,25.6
2022-11-15T13:51:22.999Z,25.5
2022-11-15T13:52:25.046Z,25.5